createdAt,value
2023-03-24T00:00:00.625Z,6.88
2023-03-24T00:02:28.800Z,7.30
2023-03-24T00:04:58.767Z,6.97
2023-03-24T00:07:26.095Z,6.80
2023-03-24T00:09:54.045Z,7.30
2023-03-24T00:12:20.834Z,7.22
2023-03-24T00:14:47.554Z,7.22
2023-03-24T00:17:14.476Z,7.07
2023-03-24T00:19:41.554Z,7.00
2023-03-24T00:22:14.225Z,7.03
2023-03-24T00:24:41.871Z,6.97
2023-03-24T00:27:08.639Z,6.90
2023-03-24T00:29:36.295Z,6.68
2023-03-24T00:32:03.089Z,7.32
2023-03-24T00:34:29.863Z,6.78
2023-03-24T00:36:56.486Z,6.88
2023-03-24T00:39:23.239Z,7.00
2023-03-24T00:41:50.125Z,7.00
2023-03-24T00:44:19.928Z,7.13
2023-03-24T00:46:55.748Z,6.95
2023-03-24T00:49:42.485Z,7.10
2023-03-24T00:52:15.215Z,7.30
2023-03-24T00:54:42.099Z,6.80
2023-03-24T00:57:09.523Z,7.20
2023-03-24T00:59:42.356Z,6.80
2023-03-24T01:02:13.091Z,6.90
2023-03-24T01:04:41.606Z,6.50
2023-03-24T01:07:10.759Z,7.05
2023-03-24T01:09:38.106Z,6.85
2023-03-24T01:12:05.158Z,7.20
2023-03-24T01:14:32.474Z,6.95
2023-03-24T01:16:59.947Z,6.95
2023-03-24T01:19:26.706Z,6.65
2023-03-24T01:21:54.441Z,7.20
2023-03-24T01:24:25.529Z,6.28
2023-03-24T01:26:52.416Z,7.13
2023-03-24T01:29:19.144Z,6.63
2023-03-24T01:31:46.075Z,7.25
2023-03-24T01:34:12.742Z,7.13
2023-03-24T01:36:39.377Z,6.93
2023-03-24T01:39:06.608Z,6.90
2023-03-24T01:41:39.125Z,6.80
2023-03-24T01:44:36.633Z,7.35
2023-03-24T01:47:07.056Z,6.32
2023-03-24T01:49:43.342Z,6.85
2023-03-24T01:52:15.372Z,7.22
2023-03-24T01:54:47.564Z,6.63
2023-03-24T01:57:21.336Z,6.78
2023-03-24T01:59:49.823Z,6.65
2023-03-24T02:02:42.735Z,7.03
2023-03-24T02:05:12.277Z,6.40
2023-03-24T02:08:15.709Z,6.97
2023-03-24T02:10:45.075Z,6.85
2023-03-24T02:13:11.939Z,7.10
2023-03-24T02:16:17.880Z,6.35
2023-03-24T02:21:39.582Z,6.90
2023-03-24T02:24:43.319Z,6.80
2023-03-24T02:27:34.126Z,6.95
2023-03-24T02:30:09.581Z,7.25
2023-03-24T02:32:49.755Z,6.97
2023-03-24T02:35:28.026Z,6.95
2023-03-24T02:37:58.756Z,6.82
2023-03-24T02:40:40.674Z,6.65
2023-03-24T02:43:19.247Z,6.93
2023-03-24T02:45:52.263Z,6.82
2023-03-24T02:48:28.848Z,6.75
2023-03-24T02:51:19.025Z,6.97
2023-03-24T02:54:03.541Z,7.43
2023-03-24T02:56:52.372Z,7.18
2023-03-24T02:59:39.900Z,7.45
2023-03-24T03:02:28.544Z,7.00
2023-03-24T03:05:05.190Z,7.07
2023-03-24T03:07:33.528Z,7.20
2023-03-24T03:10:06.257Z,7.07
2023-03-24T03:12:34.942Z,7.70
2023-03-24T03:15:22.489Z,7.55
2023-03-24T03:17:53.523Z,8.05
2023-03-24T03:20:22.701Z,7.40
2023-03-24T03:22:53.862Z,7.82
2023-03-24T03:25:23.970Z,7.43
2023-03-24T03:27:52.990Z,7.15
2023-03-24T03:30:37.683Z,7.95
2023-03-24T03:33:08.516Z,7.53
2023-03-24T03:35:56.560Z,8.18
2023-03-24T03:38:32.987Z,8.48
2023-03-24T03:41:01.339Z,7.95
2023-03-24T03:43:33.900Z,7.35
2023-03-24T03:46:01.542Z,7.35
2023-03-24T03:48:34.185Z,7.05
2023-03-24T03:51:13.217Z,6.68
2023-03-24T03:53:49.242Z,6.50
2023-03-24T03:56:18.838Z,5.65
2023-03-24T03:58:56.466Z,5.60
2023-03-24T04:01:25.565Z,5.70
2023-03-24T04:04:12.848Z,5.63
2023-03-24T04:07:22.721Z,5.63
2023-03-24T04:10:31.225Z,5.75
2023-03-24T04:13:07.178Z,6.50
2023-03-24T04:16:03.486Z,6.25
2023-03-24T04:18:55.445Z,6.18
2023-03-24T04:21:38.431Z,5.55
2023-03-24T04:24:28.557Z,5.40
2023-03-24T04:27:16.558Z,6.50
2023-03-24T04:30:04.045Z,5.88
2023-03-24T04:32:52.307Z,5.97
2023-03-24T04:35:32.073Z,7.30
2023-03-24T04:38:25.878Z,6.78
2023-03-24T04:41:08.045Z,6.90
2023-03-24T04:43:36.778Z,7.43
2023-03-24T04:46:07.370Z,7.68
2023-03-24T04:51:31.683Z,7.28
2023-03-24T04:54:05.029Z,7.50
2023-03-24T04:57:06.063Z,6.65
2023-03-24T04:59:38.561Z,6.05
2023-03-24T05:02:07.134Z,5.72
2023-03-24T05:04:57.039Z,6.00
2023-03-24T05:07:32.936Z,6.28
2023-03-24T05:10:02.763Z,6.75
2023-03-24T05:12:31.900Z,6.43
2023-03-24T05:15:17.769Z,7.13
2023-03-24T05:17:46.699Z,6.78
2023-03-24T05:20:15.167Z,6.80
2023-03-24T05:22:45.666Z,6.70
2023-03-24T05:25:12.607Z,6.93
2023-03-24T05:27:39.373Z,6.30
2023-03-24T05:30:17.521Z,6.68
2023-03-24T05:32:46.730Z,6.13
2023-03-24T05:35:14.159Z,6.53
2023-03-24T05:37:42.658Z,6.70
2023-03-24T05:40:09.908Z,6.53
2023-03-24T05:42:50.357Z,6.32
2023-03-24T05:45:17.883Z,6.45
2023-03-24T05:47:44.486Z,6.70
2023-03-24T05:50:11.418Z,6.45
2023-03-24T05:52:38.030Z,6.50
2023-03-24T05:55:33.498Z,6.85
2023-03-24T05:58:11.670Z,6.57
2023-03-24T06:00:44.988Z,6.53
2023-03-24T06:03:18.693Z,6.28
2023-03-24T06:05:59.786Z,6.40
2023-03-24T06:08:28.737Z,6.57
2023-03-24T06:11:00.451Z,6.60
2023-03-24T06:13:27.388Z,6.45
2023-03-24T06:15:54.768Z,6.30
2023-03-24T06:18:36.151Z,7.40
2023-03-24T06:21:12.398Z,6.65
2023-03-24T06:23:41.527Z,7.07
2023-03-24T06:26:11.710Z,6.72
2023-03-24T06:28:55.082Z,6.93
2023-03-24T06:31:23.998Z,6.40
2023-03-24T06:33:52.263Z,6.68
2023-03-24T06:36:19.433Z,6.95
2023-03-24T06:38:46.526Z,6.30
2023-03-24T06:41:17.528Z,6.40
2023-03-24T06:43:44.441Z,6.55
2023-03-24T06:46:11.378Z,6.50
2023-03-24T06:48:40.938Z,6.40
2023-03-24T06:51:08.371Z,6.68
2023-03-24T06:53:35.386Z,5.93
2023-03-24T06:56:02.948Z,15.63
2023-03-24T06:58:36.647Z,6.97
2023-03-24T07:01:15.644Z,6.45
2023-03-24T07:03:51.834Z,6.32
2023-03-24T07:06:40.301Z,6.30
2023-03-24T07:09:14.057Z,6.18
2023-03-24T07:11:41.333Z,6.28
2023-03-24T07:14:08.056Z,6.30
2023-03-24T07:16:36.212Z,7.03
2023-03-24T07:19:19.680Z,7.15
2023-03-24T07:21:51.407Z,6.20
2023-03-24T07:24:25.879Z,6.00
2023-03-24T07:27:09.160Z,6.32
2023-03-24T07:29:36.398Z,5.60
2023-03-24T07:32:26.302Z,5.88
2023-03-24T07:34:53.390Z,5.80
2023-03-24T07:37:20.155Z,6.03
2023-03-24T07:39:46.729Z,5.53
2023-03-24T07:42:13.496Z,5.90
2023-03-24T07:45:00.001Z,5.88
2023-03-24T07:47:29.117Z,5.60
2023-03-24T07:49:56.016Z,5.47
2023-03-24T07:52:22.702Z,5.13
2023-03-24T07:54:52.043Z,5.32
2023-03-24T07:57:47.582Z,5.30
2023-03-24T08:00:21.502Z,5.00
2023-03-24T08:03:00.974Z,5.15
2023-03-24T08:05:48.706Z,5.25
2023-03-24T08:08:19.392Z,4.95
2023-03-24T08:10:46.568Z,5.40
2023-03-24T08:13:13.355Z,4.93
2023-03-24T08:15:40.045Z,5.20
2023-03-24T08:18:07.062Z,4.90
2023-03-24T08:20:34.074Z,4.68
2023-03-24T08:23:01.036Z,4.78
2023-03-24T08:25:27.787Z,4.75
2023-03-24T08:27:54.769Z,4.90
2023-03-24T08:30:23.792Z,4.85
2023-03-24T08:32:53.417Z,4.78
2023-03-24T08:35:23.205Z,5.07
2023-03-24T08:37:50.174Z,4.70
2023-03-24T08:40:19.585Z,4.85
2023-03-24T08:42:51.341Z,4.80
2023-03-24T08:45:21.211Z,4.90
2023-03-24T08:47:50.590Z,4.63
2023-03-24T08:50:19.067Z,4.70
2023-03-24T08:52:48.643Z,4.85
2023-03-24T08:55:16.862Z,4.43
2023-03-24T08:57:43.581Z,4.53
2023-03-24T09:00:14.763Z,4.50
2023-03-24T09:02:42.866Z,5.00
2023-03-24T09:05:10.045Z,4.50
2023-03-24T09:07:37.223Z,4.45
2023-03-24T09:10:07.496Z,4.60
2023-03-24T09:12:35.398Z,4.55
2023-03-24T09:15:02.351Z,4.93
2023-03-24T09:17:29.121Z,4.50
2023-03-24T09:19:55.813Z,4.78
2023-03-24T09:22:22.620Z,4.90
2023-03-24T09:24:49.373Z,4.75
2023-03-24T09:27:17.093Z,4.50
2023-03-24T09:29:44.071Z,4.60
2023-03-24T09:32:10.833Z,4.30
2023-03-24T09:34:38.410Z,4.70
2023-03-24T09:37:07.964Z,4.28
2023-03-24T09:39:37.805Z,4.50
2023-03-24T09:42:05.735Z,4.78
2023-03-24T09:44:44.184Z,4.80
2023-03-24T09:47:21.925Z,4.88
2023-03-24T09:49:48.989Z,4.70
2023-03-24T09:52:21.198Z,4.82
2023-03-24T09:54:54.093Z,4.40
2023-03-24T09:57:41.279Z,4.70
2023-03-24T10:00:18.147Z,4.93
2023-03-24T10:02:45.618Z,4.40
2023-03-24T10:05:18.285Z,4.80
2023-03-24T10:07:54.872Z,4.68
2023-03-24T10:10:33.669Z,4.57
2023-03-24T10:13:08.444Z,4.82
2023-03-24T10:18:37.185Z,4.68
2023-03-24T10:21:19.350Z,4.57
2023-03-24T10:24:42.995Z,4.65
2023-03-24T10:27:29.174Z,4.32
2023-03-24T10:30:02.539Z,4.32
2023-03-24T10:32:30.702Z,4.50
2023-03-24T10:35:09.096Z,4.55
2023-03-24T10:37:37.172Z,4.78
2023-03-24T10:40:12.982Z,4.25
2023-03-24T10:42:39.933Z,4.63
2023-03-24T10:45:11.238Z,4.43
2023-03-24T10:47:38.386Z,5.30
2023-03-24T10:50:14.483Z,5.18
2023-03-24T10:52:48.719Z,8.00
2023-03-24T10:55:20.463Z,6.82
2023-03-24T10:57:50.415Z,6.50
2023-03-24T11:00:23.857Z,6.65
2023-03-24T11:02:57.632Z,6.88
2023-03-24T11:05:30.596Z,7.20
2023-03-24T11:08:11.422Z,7.63
2023-03-24T11:10:38.761Z,6.90
2023-03-24T11:13:07.908Z,6.50
2023-03-24T11:15:37.435Z,6.30
2023-03-24T11:18:14.168Z,6.32
2023-03-24T11:21:06.079Z,6.28
2023-03-24T11:23:40.824Z,6.30
2023-03-24T11:26:16.555Z,6.35
2023-03-24T11:28:46.932Z,6.15
2023-03-24T11:31:24.681Z,5.80
2023-03-24T11:34:07.643Z,5.55
2023-03-24T11:36:44.729Z,5.55
2023-03-24T11:39:23.913Z,5.68
2023-03-24T11:42:05.814Z,5.60
2023-03-24T11:44:38.756Z,5.50
2023-03-24T11:47:24.505Z,5.38
2023-03-24T11:50:03.053Z,4.97
2023-03-24T11:52:34.369Z,5.22
2023-03-24T11:55:01.345Z,4.78
2023-03-24T11:57:56.617Z,5.03
2023-03-24T12:00:30.123Z,5.00
2023-03-24T12:03:16.687Z,4.55
2023-03-24T12:05:50.726Z,4.80
2023-03-24T12:08:27.273Z,4.85
2023-03-24T12:11:21.278Z,4.80
2023-03-24T12:13:51.667Z,4.90
2023-03-24T12:16:39.315Z,4.40
2023-03-24T12:19:18.930Z,4.70
2023-03-24T12:21:56.469Z,4.70
2023-03-24T12:24:34.037Z,4.47
2023-03-24T12:27:01.118Z,4.10
2023-03-24T12:29:46.681Z,4.70
2023-03-24T12:32:31.693Z,4.60
2023-03-24T12:35:39.553Z,4.68
2023-03-24T12:38:18.823Z,4.40
2023-03-24T12:40:51.431Z,4.63
2023-03-24T12:43:41.957Z,4.97
2023-03-24T12:46:37.193Z,4.43
2023-03-24T12:49:23.588Z,4.80
2023-03-24T12:52:04.919Z,4.80
2023-03-24T12:54:47.053Z,4.70
2023-03-24T12:57:17.374Z,4.60
2023-03-24T12:59:52.554Z,3.95
2023-03-24T13:02:21.946Z,4.35
2023-03-24T13:04:49.606Z,4.45
2023-03-24T13:07:25.631Z,4.38
2023-03-24T13:10:13.900Z,4.18
2023-03-24T13:12:49.171Z,4.57
2023-03-24T13:15:18.722Z,4.70
2023-03-24T13:18:09.144Z,4.75
2023-03-24T13:20:49.868Z,4.60
2023-03-24T13:23:31.866Z,4.90
2023-03-24T13:26:27.965Z,5.00
2023-03-24T13:29:03.905Z,5.05
2023-03-24T13:31:36.460Z,5.28
2023-03-24T13:34:04.456Z,4.90
2023-03-24T13:36:45.355Z,4.90
2023-03-24T13:39:15.850Z,4.82
2023-03-24T13:41:48.672Z,5.35
2023-03-24T13:44:21.097Z,5.22
2023-03-24T13:47:13.839Z,5.70
2023-03-24T13:49:42.657Z,5.10
2023-03-24T13:52:28.817Z,5.35
2023-03-24T13:54:59.297Z,5.40
2023-03-24T13:57:26.633Z,5.38
2023-03-24T14:00:15.822Z,5.05
2023-03-24T14:02:58.330Z,5.18
2023-03-24T14:06:00.738Z,5.10
2023-03-24T14:08:52.281Z,5.03
2023-03-24T14:11:43.218Z,5.00
2023-03-24T14:14:15.809Z,5.05
2023-03-24T14:16:57.423Z,5.15
2023-03-24T14:19:26.562Z,5.20
2023-03-24T14:22:11.347Z,4.72
2023-03-24T14:24:38.563Z,4.90
2023-03-24T14:27:29.278Z,4.88
2023-03-24T14:30:00.608Z,5.03
2023-03-24T14:32:27.493Z,5.32
2023-03-24T14:35:00.211Z,4.78
2023-03-24T14:37:27.653Z,4.90
2023-03-24T14:39:57.557Z,4.72
2023-03-24T14:42:33.670Z,4.70
2023-03-24T14:45:22.136Z,4.60
2023-03-24T14:48:00.635Z,4.80
2023-03-24T14:50:27.966Z,4.80
2023-03-24T14:53:03.316Z,4.53
2023-03-24T14:55:30.730Z,4.93
2023-03-24T14:58:07.731Z,5.15
2023-03-24T15:01:03.894Z,4.85
2023-03-24T15:04:06.318Z,4.70
2023-03-24T15:06:33.482Z,4.95
2023-03-24T15:09:06.983Z,5.00
2023-03-24T15:11:35.898Z,4.78
2023-03-24T15:14:04.337Z,4.85
2023-03-24T15:16:32.919Z,4.63
2023-03-24T15:19:10.713Z,5.30
2023-03-24T15:21:49.290Z,5.35
2023-03-24T15:24:22.210Z,6.03
2023-03-24T15:26:49.908Z,5.80
2023-03-24T15:29:16.516Z,6.13
2023-03-24T15:31:43.334Z,6.10
2023-03-24T15:34:42.058Z,6.20
2023-03-24T15:37:30.642Z,6.03
2023-03-24T15:40:08.892Z,6.03
2023-03-24T15:42:42.355Z,5.95
2023-03-24T15:45:14.485Z,5.47
2023-03-24T15:47:42.068Z,6.03
2023-03-24T15:50:33.781Z,5.63
2023-03-24T15:53:22.134Z,5.63
2023-03-24T15:56:06.611Z,5.22
2023-03-24T15:58:53.261Z,5.32
2023-03-24T16:01:36.158Z,4.90
2023-03-24T16:04:08.275Z,5.47
2023-03-24T16:06:35.929Z,5.05
2023-03-24T16:09:10.712Z,4.90
2023-03-24T16:14:19.243Z,4.53
2023-03-24T16:16:45.939Z,4.80
2023-03-24T16:19:13.193Z,4.78
2023-03-24T16:21:39.867Z,4.72
2023-03-24T16:24:06.686Z,4.32
2023-03-24T16:26:33.346Z,4.43
2023-03-24T16:29:08.749Z,4.13
2023-03-24T16:31:35.779Z,4.20
2023-03-24T16:34:02.468Z,3.83
2023-03-24T16:36:29.184Z,4.22
2023-03-24T16:38:58.406Z,3.80
2023-03-24T16:41:25.250Z,3.95
2023-03-24T16:43:53.126Z,4.00
2023-03-24T16:46:30.476Z,3.72
2023-03-24T16:48:57.850Z,3.67
2023-03-24T16:51:24.785Z,3.70
2023-03-24T16:53:51.426Z,3.78
2023-03-24T16:56:20.821Z,3.47
2023-03-24T16:58:48.204Z,3.80
2023-03-24T17:01:33.542Z,3.40
2023-03-24T17:04:10.643Z,3.50
2023-03-24T17:06:40.471Z,3.58
2023-03-24T17:09:08.522Z,3.17
2023-03-24T17:11:37.454Z,3.17
2023-03-24T17:14:05.819Z,3.10
2023-03-24T17:16:36.647Z,3.00
2023-03-24T17:19:04.816Z,2.88
2023-03-24T17:21:32.742Z,2.90
2023-03-24T17:23:59.441Z,2.80
2023-03-24T17:26:26.402Z,2.63
2023-03-24T17:28:54.167Z,2.60
2023-03-24T17:31:20.846Z,2.95
2023-03-24T17:33:47.680Z,2.60
2023-03-24T17:36:16.500Z,2.80
2023-03-24T17:38:43.811Z,2.50
2023-03-24T17:41:11.131Z,2.75
2023-03-24T17:43:37.916Z,2.40
2023-03-24T17:46:04.814Z,2.38
2023-03-24T17:48:31.907Z,2.35
2023-03-24T17:50:58.594Z,2.55
2023-03-24T17:53:25.857Z,2.47
2023-03-24T17:55:53.565Z,2.58
2023-03-24T17:58:20.997Z,2.35
2023-03-24T18:00:48.328Z,2.35
2023-03-24T18:03:16.638Z,2.17
2023-03-24T18:05:43.802Z,2.40
2023-03-24T18:08:12.385Z,2.17
2023-03-24T18:10:39.261Z,2.30
2023-03-24T18:13:06.876Z,2.30
2023-03-24T18:15:34.742Z,2.10
2023-03-24T18:18:01.828Z,2.10
2023-03-24T18:20:29.081Z,2.40
2023-03-24T18:22:55.799Z,2.08
2023-03-24T18:25:22.483Z,2.15
2023-03-24T18:27:49.738Z,2.08
2023-03-24T18:30:16.935Z,1.80
2023-03-24T18:32:43.918Z,2.10
2023-03-24T18:35:16.248Z,1.80
2023-03-24T18:37:43.529Z,1.92
2023-03-24T18:40:10.949Z,2.10
2023-03-24T18:42:37.816Z,1.70
2023-03-24T18:45:06.351Z,2.22
2023-03-24T18:47:33.013Z,2.65
2023-03-24T18:49:59.792Z,2.65
2023-03-24T18:52:27.147Z,3.10
2023-03-24T18:54:54.404Z,3.45
2023-03-24T18:57:21.546Z,3.60
2023-03-24T18:59:48.652Z,3.50
2023-03-24T19:02:15.633Z,3.30
2023-03-24T19:04:43.767Z,3.60
2023-03-24T19:07:14.691Z,3.30
2023-03-24T19:09:42.374Z,3.22
2023-03-24T19:12:09.568Z,3.47
2023-03-24T19:14:36.679Z,3.03
2023-03-24T19:17:03.530Z,3.22
2023-03-24T19:19:31.621Z,3.15
2023-03-24T19:22:01.028Z,3.10
2023-03-24T19:24:28.124Z,3.10
2023-03-24T19:26:55.352Z,3.05
2023-03-24T19:29:22.142Z,3.53
2023-03-24T19:31:49.661Z,3.50
2023-03-24T19:34:16.366Z,3.10
2023-03-24T19:36:45.930Z,3.40
2023-03-24T19:39:14.822Z,2.97
2023-03-24T19:41:41.597Z,3.33
2023-03-24T19:44:08.296Z,3.17
2023-03-24T19:46:35.015Z,3.08
2023-03-24T19:49:01.988Z,2.92
2023-03-24T19:51:28.899Z,2.97
2023-03-24T19:53:55.668Z,2.92
2023-03-24T19:56:22.718Z,3.03
2023-03-24T19:58:49.350Z,3.53
2023-03-24T20:01:16.068Z,3.85
2023-03-24T20:03:42.838Z,3.30
2023-03-24T20:06:10.112Z,3.63
2023-03-24T20:08:37.837Z,3.63
2023-03-24T20:11:12.050Z,3.47
2023-03-24T20:13:39.020Z,3.30
2023-03-24T20:16:06.380Z,3.17
2023-03-24T20:18:34.273Z,2.97
2023-03-24T20:21:01.648Z,3.10
2023-03-24T20:23:28.451Z,3.30
2023-03-24T20:25:59.831Z,2.90
2023-03-24T20:28:27.549Z,3.10
2023-03-24T20:31:01.788Z,2.60
2023-03-24T20:33:28.986Z,2.83
2023-03-24T20:35:57.241Z,2.65
2023-03-24T20:38:24.474Z,2.35
2023-03-24T20:41:01.433Z,2.70
2023-03-24T20:43:29.165Z,2.47
2023-03-24T20:45:56.919Z,2.30
2023-03-24T20:48:24.494Z,2.13
2023-03-24T20:50:51.324Z,2.50
2023-03-24T20:53:18.144Z,2.50
2023-03-24T20:55:49.253Z,1.95
2023-03-24T20:58:17.809Z,2.50
2023-03-24T21:00:47.963Z,2.50
2023-03-24T21:03:14.700Z,2.50
2023-03-24T21:05:41.338Z,2.20
2023-03-24T21:08:07.993Z,2.22
2023-03-24T21:10:36.266Z,2.53
2023-03-24T21:13:03.237Z,2.50
2023-03-24T21:15:30.393Z,2.20
2023-03-24T21:17:57.341Z,2.25
2023-03-24T21:20:26.691Z,2.30
2023-03-24T21:22:55.010Z,2.40
2023-03-24T21:25:27.454Z,2.38
2023-03-24T21:27:54.645Z,2.40
2023-03-24T21:30:23.749Z,2.25
2023-03-24T21:32:52.307Z,2.20
2023-03-24T21:35:20.090Z,2.33
2023-03-24T21:37:47.552Z,2.15
2023-03-24T21:40:18.273Z,2.00
2023-03-24T21:42:46.019Z,2.08
2023-03-24T21:45:15.600Z,2.22
2023-03-24T21:47:43.060Z,2.20
2023-03-24T21:50:11.608Z,2.13
2023-03-24T21:52:39.276Z,1.95
2023-03-24T21:55:06.801Z,1.90
2023-03-24T21:57:33.738Z,1.88
2023-03-24T22:00:01.972Z,2.00
2023-03-24T22:02:38.456Z,2.00
2023-03-24T22:05:05.638Z,1.80
2023-03-24T22:07:39.478Z,1.90
2023-03-24T22:10:07.721Z,1.93
2023-03-24T22:12:34.633Z,1.80
2023-03-24T22:15:01.348Z,1.73
2023-03-24T22:17:28.206Z,1.83
2023-03-24T22:19:55.546Z,1.90
2023-03-24T22:22:22.264Z,1.92
2023-03-24T22:24:48.965Z,1.80
2023-03-24T22:27:17.826Z,1.70
2023-03-24T22:29:44.734Z,1.80
2023-03-24T22:32:11.420Z,1.50
2023-03-24T22:34:38.105Z,1.67
2023-03-24T22:37:04.737Z,1.60
2023-03-24T22:39:31.888Z,1.38
2023-03-24T22:41:58.780Z,1.90
2023-03-24T22:44:25.487Z,1.40
2023-03-24T22:46:52.259Z,1.65
2023-03-24T22:49:18.923Z,1.38
2023-03-24T22:51:45.725Z,1.40
2023-03-24T22:54:12.348Z,1.50
2023-03-24T22:56:39.364Z,5.20
2023-03-24T22:59:06.459Z,4.90
2023-03-24T23:01:33.094Z,3.30
2023-03-24T23:03:59.872Z,2.85
2023-03-24T23:06:28.301Z,2.67
2023-03-24T23:08:55.738Z,2.10
2023-03-24T23:11:22.938Z,2.08
2023-03-24T23:13:50.459Z,1.70
2023-03-24T23:16:17.365Z,1.63
2023-03-24T23:18:44.696Z,1.52
2023-03-24T23:21:13.962Z,1.52
2023-03-24T23:23:41.404Z,1.30
2023-03-24T23:26:25.131Z,1.20
2023-03-24T23:28:53.435Z,1.20
2023-03-24T23:31:25.144Z,1.30
2023-03-24T23:33:56.611Z,1.10
2023-03-24T23:36:26.351Z,1.23
2023-03-24T23:38:53.459Z,1.17
2023-03-24T23:41:21.265Z,1.30
2023-03-24T23:43:50.171Z,1.17
2023-03-24T23:46:17.977Z,1.00
2023-03-24T23:48:44.673Z,0.90
2023-03-24T23:51:11.308Z,1.00
2023-03-24T23:53:38.547Z,0.95
2023-03-24T23:56:07.435Z,1.00
2023-03-24T23:58:36.489Z,1.05
